GMMB

Ben Slimane Airport

Ben Slimane, Morocco
METAR GMMB 231400Z 32008KT 280V360 9999 SCT016 18/11 Q1004 NOSIG
Observed Flight Rules
Feb-23 @ 14:00 UTC (33 minutes ago) Visual Flight Rules
Wind Visibility Clouds
320° at 8 knots 10,000+ meters
  • Scattered at 1,600' AGL
Temperatures Readings
Current 18°C / 64°F
Dewpoint 11°C / 52°F
Humidity 64%
Altimeter 29.65" Hg
Pressure 1004 hPa
Elevation 191
METAR GMMB 231400Z 32008KT 280V360 9999 SCT016 18/11 Q1004 NOSIG
Observed Flight Rules
Feb-23 @ 14:00 UTC
(33 minutes ago)
VFR
Wind Visibility
320° at 8 knots 10,000+ meters
Clouds
  • Scattered at 1,600' AGL
Temperature Dewpoint
18°C / 64°F 11°C / 52°F
Humidity Altimeter Pressure
64% 29.65" Hg 1004 hPa